sensor_id;sensor_type;location;lat;lon;timestamp;P1;durP1;ratioP1;P2;durP2;ratioP2
72087;SDS011;59961;50.232;8.616;2023-09-30T00:01:43;8.18;;;2.05;;
72087;SDS011;59961;50.232;8.616;2023-09-30T00:04:09;7.37;;;2.60;;
72087;SDS011;59961;50.232;8.616;2023-09-30T00:06:34;8.23;;;2.40;;
72087;SDS011;59961;50.232;8.616;2023-09-30T00:08:59;9.37;;;2.77;;
72087;SDS011;59961;50.232;8.616;2023-09-30T00:11:24;8.13;;;2.83;;
72087;SDS011;59961;50.232;8.616;2023-09-30T00:13:49;11.17;;;3.03;;
72087;SDS011;59961;50.232;8.616;2023-09-30T00:16:15;7.50;;;2.77;;
72087;SDS011;59961;50.232;8.616;2023-09-30T00:18:42;9.33;;;2.20;;
72087;SDS011;59961;50.232;8.616;2023-09-30T00:21:07;11.17;;;2.87;;
72087;SDS011;59961;50.232;8.616;2023-09-30T00:23:32;7.43;;;2.37;;
72087;SDS011;59961;50.232;8.616;2023-09-30T00:25:58;10.32;;;2.78;;
72087;SDS011;59961;50.232;8.616;2023-09-30T00:28:23;9.60;;;3.03;;
72087;SDS011;59961;50.232;8.616;2023-09-30T00:30:48;10.27;;;3.20;;
72087;SDS011;59961;50.232;8.616;2023-09-30T00:33:15;10.35;;;3.22;;
72087;SDS011;59961;50.232;8.616;2023-09-30T00:35:40;7.87;;;2.87;;
72087;SDS011;59961;50.232;8.616;2023-09-30T00:38:05;10.65;;;3.65;;
72087;SDS011;59961;50.232;8.616;2023-09-30T00:40:30;10.10;;;2.90;;
72087;SDS011;59961;50.232;8.616;2023-09-30T00:42:55;11.40;;;3.63;;
72087;SDS011;59961;50.232;8.616;2023-09-30T00:45:20;9.23;;;3.50;;
72087;SDS011;59961;50.232;8.616;2023-09-30T00:47:46;7.20;;;3.40;;
72087;SDS011;59961;50.232;8.616;2023-09-30T00:50:11;8.05;;;2.72;;
72087;SDS011;59961;50.232;8.616;2023-09-30T00:52:37;11.20;;;3.38;;
72087;SDS011;59961;50.232;8.616;2023-09-30T00:55:03;7.18;;;2.85;;
72087;SDS011;59961;50.232;8.616;2023-09-30T00:57:28;9.40;;;3.47;;
72087;SDS011;59961;50.232;8.616;2023-09-30T00:59:54;8.00;;;2.78;;
72087;SDS011;59961;50.232;8.616;2023-09-30T01:02:20;8.60;;;3.27;;
72087;SDS011;59961;50.232;8.616;2023-09-30T01:04:46;8.27;;;3.08;;
72087;SDS011;59961;50.232;8.616;2023-09-30T01:07:12;11.07;;;2.97;;
72087;SDS011;59961;50.232;8.616;2023-09-30T01:09:37;8.83;;;2.50;;
72087;SDS011;59961;50.232;8.616;2023-09-30T01:12:03;9.77;;;2.70;;
72087;SDS011;59961;50.232;8.616;2023-09-30T01:14:32;7.15;;;2.75;;
72087;SDS011;59961;50.232;8.616;2023-09-30T01:16:59;8.20;;;2.67;;
72087;SDS011;59961;50.232;8.616;2023-09-30T01:19:25;8.77;;;2.60;;
72087;SDS011;59961;50.232;8.616;2023-09-30T01:21:53;8.18;;;2.50;;
72087;SDS011;59961;50.232;8.616;2023-09-30T01:24:21;7.68;;;2.90;;
72087;SDS011;59961;50.232;8.616;2023-09-30T01:26:46;9.05;;;2.40;;
72087;SDS011;59961;50.232;8.616;2023-09-30T01:29:11;8.10;;;2.70;;
72087;SDS011;59961;50.232;8.616;2023-09-30T01:31:37;11.23;;;3.20;;
72087;SDS011;59961;50.232;8.616;2023-09-30T01:34:02;8.03;;;3.13;;
72087;SDS011;59961;50.232;8.616;2023-09-30T01:36:27;7.88;;;2.75;;
72087;SDS011;59961;50.232;8.616;2023-09-30T01:38:53;8.52;;;2.65;;
72087;SDS011;59961;50.232;8.616;2023-09-30T01:41:18;10.75;;;3.08;;
72087;SDS011;59961;50.232;8.616;2023-09-30T01:43:43;8.73;;;2.57;;
72087;SDS011;59961;50.232;8.616;2023-09-30T01:46:09;7.23;;;2.17;;
72087;SDS011;59961;50.232;8.616;2023-09-30T01:48:34;7.75;;;2.55;;
72087;SDS011;59961;50.232;8.616;2023-09-30T01:50:59;8.27;;;2.97;;
72087;SDS011;59961;50.232;8.616;2023-09-30T01:53:25;8.48;;;4.45;;
72087;SDS011;59961;50.232;8.616;2023-09-30T01:55:50;9.48;;;3.88;;
72087;SDS011;59961;50.232;8.616;2023-09-30T01:58:15;8.85;;;2.97;;
72087;SDS011;59961;50.232;8.616;2023-09-30T02:00:40;8.38;;;2.67;;
72087;SDS011;59961;50.232;8.616;2023-09-30T02:03:05;10.27;;;2.63;;
72087;SDS011;59961;50.232;8.616;2023-09-30T02:05:30;11.30;;;2.93;;
72087;SDS011;59961;50.232;8.616;2023-09-30T02:07:55;6.93;;;2.35;;
72087;SDS011;59961;50.232;8.616;2023-09-30T02:10:21;8.50;;;3.20;;
72087;SDS011;59961;50.232;8.616;2023-09-30T02:12:46;10.48;;;2.97;;
72087;SDS011;59961;50.232;8.616;2023-09-30T02:15:12;7.80;;;2.73;;
72087;SDS011;59961;50.232;8.616;2023-09-30T02:17:37;8.68;;;2.78;;
72087;SDS011;59961;50.232;8.616;2023-09-30T02:20:02;7.87;;;2.30;;
72087;SDS011;59961;50.232;8.616;2023-09-30T02:22:37;8.03;;;2.10;;
72087;SDS011;59961;50.232;8.616;2023-09-30T02:25:03;8.50;;;2.50;;
72087;SDS011;59961;50.232;8.616;2023-09-30T02:27:32;7.95;;;2.88;;
72087;SDS011;59961;50.232;8.616;2023-09-30T02:29:57;9.10;;;2.60;;
72087;SDS011;59961;50.232;8.616;2023-09-30T02:32:22;13.30;;;3.40;;
72087;SDS011;59961;50.232;8.616;2023-09-30T02:34:49;10.52;;;3.00;;
72087;SDS011;59961;50.232;8.616;2023-09-30T02:37:15;9.57;;;3.95;;
72087;SDS011;59961;50.232;8.616;2023-09-30T02:39:40;11.13;;;3.60;;
72087;SDS011;59961;50.232;8.616;2023-09-30T02:42:05;9.07;;;2.80;;
72087;SDS011;59961;50.232;8.616;2023-09-30T02:44:30;9.03;;;3.17;;
72087;SDS011;59961;50.232;8.616;2023-09-30T02:46:56;7.53;;;2.80;;
72087;SDS011;59961;50.232;8.616;2023-09-30T02:49:21;8.50;;;3.10;;
72087;SDS011;59961;50.232;8.616;2023-09-30T02:51:46;10.53;;;3.00;;
72087;SDS011;59961;50.232;8.616;2023-09-30T02:54:11;8.18;;;2.90;;
72087;SDS011;59961;50.232;8.616;2023-09-30T02:56:40;7.13;;;3.28;;
72087;SDS011;59961;50.232;8.616;2023-09-30T02:59:05;9.50;;;2.97;;
72087;SDS011;59961;50.232;8.616;2023-09-30T03:01:32;7.25;;;3.30;;
72087;SDS011;59961;50.232;8.616;2023-09-30T03:03:57;13.43;;;3.60;;
72087;SDS011;59961;50.232;8.616;2023-09-30T03:06:22;8.63;;;3.40;;
72087;SDS011;59961;50.232;8.616;2023-09-30T03:08:47;9.60;;;2.70;;
72087;SDS011;59961;50.232;8.616;2023-09-30T03:11:13;10.18;;;3.42;;
72087;SDS011;59961;50.232;8.616;2023-09-30T03:13:38;10.55;;;5.70;;
72087;SDS011;59961;50.232;8.616;2023-09-30T03:16:05;9.80;;;3.40;;
72087;SDS011;59961;50.232;8.616;2023-09-30T03:18:30;9.65;;;3.95;;
72087;SDS011;59961;50.232;8.616;2023-09-30T03:20:58;8.10;;;3.30;;
72087;SDS011;59961;50.232;8.616;2023-09-30T03:23:25;10.27;;;2.97;;
72087;SDS011;59961;50.232;8.616;2023-09-30T03:25:55;10.05;;;4.00;;
72087;SDS011;59961;50.232;8.616;2023-09-30T03:28:21;6.95;;;2.90;;
72087;SDS011;59961;50.232;8.616;2023-09-30T03:30:46;9.83;;;3.50;;
72087;SDS011;59961;50.232;8.616;2023-09-30T03:33:12;9.73;;;3.63;;
72087;SDS011;59961;50.232;8.616;2023-09-30T03:35:37;10.33;;;3.53;;
72087;SDS011;59961;50.232;8.616;2023-09-30T03:38:03;8.35;;;3.50;;
72087;SDS011;59961;50.232;8.616;2023-09-30T03:40:28;8.75;;;3.20;;
72087;SDS011;59961;50.232;8.616;2023-09-30T03:42:58;8.10;;;3.33;;
72087;SDS011;59961;50.232;8.616;2023-09-30T03:45:23;11.83;;;4.30;;
72087;SDS011;59961;50.232;8.616;2023-09-30T03:47:48;9.37;;;3.53;;
72087;SDS011;59961;50.232;8.616;2023-09-30T03:50:14;10.13;;;4.33;;
72087;SDS011;59961;50.232;8.616;2023-09-30T03:52:40;8.20;;;4.13;;
72087;SDS011;59961;50.232;8.616;2023-09-30T03:55:09;11.88;;;4.35;;
72087;SDS011;59961;50.232;8.616;2023-09-30T03:57:36;9.98;;;4.03;;
72087;SDS011;59961;50.232;8.616;2023-09-30T04:00:02;8.50;;;4.17;;
72087;SDS011;59961;50.232;8.616;2023-09-30T04:02:31;8.15;;;4.80;;
72087;SDS011;59961;50.232;8.616;2023-09-30T04:04:56;10.40;;;4.10;;
72087;SDS011;59961;50.232;8.616;2023-09-30T04:07:22;9.27;;;3.55;;
72087;SDS011;59961;50.232;8.616;2023-09-30T04:09:52;11.30;;;4.27;;
72087;SDS011;59961;50.232;8.616;2023-09-30T04:12:17;10.07;;;5.82;;
72087;SDS011;59961;50.232;8.616;2023-09-30T04:14:42;12.05;;;4.40;;
72087;SDS011;59961;50.232;8.616;2023-09-30T04:17:07;11.43;;;4.20;;
72087;SDS011;59961;50.232;8.616;2023-09-30T04:19:34;11.43;;;4.85;;
72087;SDS011;59961;50.232;8.616;2023-09-30T04:21:59;9.63;;;4.28;;
72087;SDS011;59961;50.232;8.616;2023-09-30T04:24:25;11.95;;;3.92;;
72087;SDS011;59961;50.232;8.616;2023-09-30T04:26:50;12.40;;;4.80;;
72087;SDS011;59961;50.232;8.616;2023-09-30T04:29:17;10.57;;;3.90;;
72087;SDS011;59961;50.232;8.616;2023-09-30T04:31:43;11.25;;;3.80;;
72087;SDS011;59961;50.232;8.616;2023-09-30T04:34:09;12.20;;;4.07;;
72087;SDS011;59961;50.232;8.616;2023-09-30T04:36:34;14.03;;;4.77;;
72087;SDS011;59961;50.232;8.616;2023-09-30T04:39:00;10.70;;;4.35;;
72087;SDS011;59961;50.232;8.616;2023-09-30T04:41:26;10.30;;;4.10;;
72087;SDS011;59961;50.232;8.616;2023-09-30T04:43:51;9.30;;;3.43;;
72087;SDS011;59961;50.232;8.616;2023-09-30T04:46:17;11.02;;;3.97;;
72087;SDS011;59961;50.232;8.616;2023-09-30T04:48:45;9.82;;;4.13;;
72087;SDS011;59961;50.232;8.616;2023-09-30T04:51:13;10.57;;;4.53;;
72087;SDS011;59961;50.232;8.616;2023-09-30T04:53:41;13.50;;;4.63;;
72087;SDS011;59961;50.232;8.616;2023-09-30T04:56:06;10.47;;;4.60;;
72087;SDS011;59961;50.232;8.616;2023-09-30T04:58:31;9.27;;;3.90;;
72087;SDS011;59961;50.232;8.616;2023-09-30T05:00:57;10.17;;;4.00;;
72087;SDS011;59961;50.232;8.616;2023-09-30T05:03:22;10.27;;;4.40;;
72087;SDS011;59961;50.232;8.616;2023-09-30T05:05:50;10.45;;;4.82;;
72087;SDS011;59961;50.232;8.616;2023-09-30T05:08:15;11.40;;;4.47;;
72087;SDS011;59961;50.232;8.616;2023-09-30T05:10:41;9.88;;;4.68;;
72087;SDS011;59961;50.232;8.616;2023-09-30T05:13:06;10.83;;;4.83;;
72087;SDS011;59961;50.232;8.616;2023-09-30T05:15:31;12.03;;;5.00;;
72087;SDS011;59961;50.232;8.616;2023-09-30T05:17:57;10.30;;;4.20;;
72087;SDS011;59961;50.232;8.616;2023-09-30T05:20:22;10.32;;;4.28;;
72087;SDS011;59961;50.232;8.616;2023-09-30T05:22:49;10.87;;;4.17;;
72087;SDS011;59961;50.232;8.616;2023-09-30T05:25:14;13.30;;;4.90;;
72087;SDS011;59961;50.232;8.616;2023-09-30T05:27:45;8.17;;;4.50;;
72087;SDS011;59961;50.232;8.616;2023-09-30T05:30:12;12.18;;;5.18;;
72087;SDS011;59961;50.232;8.616;2023-09-30T05:32:40;9.73;;;4.65;;
72087;SDS011;59961;50.232;8.616;2023-09-30T05:35:05;12.43;;;4.60;;
72087;SDS011;59961;50.232;8.616;2023-09-30T05:37:31;10.40;;;4.53;;
72087;SDS011;59961;50.232;8.616;2023-09-30T05:39:56;11.17;;;4.20;;
72087;SDS011;59961;50.232;8.616;2023-09-30T05:42:21;9.77;;;5.03;;
72087;SDS011;59961;50.232;8.616;2023-09-30T05:44:47;11.90;;;4.67;;
72087;SDS011;59961;50.232;8.616;2023-09-30T05:47:13;12.45;;;5.22;;
72087;SDS011;59961;50.232;8.616;2023-09-30T05:49:38;10.73;;;5.13;;
72087;SDS011;59961;50.232;8.616;2023-09-30T05:52:03;10.60;;;5.00;;
72087;SDS011;59961;50.232;8.616;2023-09-30T05:54:30;12.90;;;4.90;;
72087;SDS011;59961;50.232;8.616;2023-09-30T05:56:55;12.20;;;4.83;;
72087;SDS011;59961;50.232;8.616;2023-09-30T05:59:21;12.47;;;5.10;;
72087;SDS011;59961;50.232;8.616;2023-09-30T06:01:46;15.27;;;5.05;;
72087;SDS011;59961;50.232;8.616;2023-09-30T06:04:11;10.63;;;5.47;;
72087;SDS011;59961;50.232;8.616;2023-09-30T06:06:37;14.03;;;4.73;;
72087;SDS011;59961;50.232;8.616;2023-09-30T06:09:03;12.38;;;5.22;;
72087;SDS011;59961;50.232;8.616;2023-09-30T06:11:28;14.25;;;5.45;;
72087;SDS011;59961;50.232;8.616;2023-09-30T06:13:57;15.97;;;5.17;;
72087;SDS011;59961;50.232;8.616;2023-09-30T06:16:24;10.05;;;4.95;;
72087;SDS011;59961;50.232;8.616;2023-09-30T06:18:51;13.73;;;4.57;;
72087;SDS011;59961;50.232;8.616;2023-09-30T06:21:16;15.80;;;5.90;;
72087;SDS011;59961;50.232;8.616;2023-09-30T06:23:45;10.13;;;4.37;;
72087;SDS011;59961;50.232;8.616;2023-09-30T06:26:10;10.77;;;4.72;;
72087;SDS011;59961;50.232;8.616;2023-09-30T06:28:35;12.73;;;5.57;;
72087;SDS011;59961;50.232;8.616;2023-09-30T06:31:06;12.05;;;5.32;;
72087;SDS011;59961;50.232;8.616;2023-09-30T06:33:31;12.03;;;5.00;;
72087;SDS011;59961;50.232;8.616;2023-09-30T06:35:57;10.73;;;4.53;;
72087;SDS011;59961;50.232;8.616;2023-09-30T06:38:27;12.00;;;5.53;;
72087;SDS011;59961;50.232;8.616;2023-09-30T06:40:52;11.67;;;5.83;;
72087;SDS011;59961;50.232;8.616;2023-09-30T06:43:17;10.07;;;5.07;;
72087;SDS011;59961;50.232;8.616;2023-09-30T06:45:42;12.77;;;5.33;;
72087;SDS011;59961;50.232;8.616;2023-09-30T06:48:08;14.63;;;5.63;;
72087;SDS011;59961;50.232;8.616;2023-09-30T06:50:37;10.57;;;5.25;;
72087;SDS011;59961;50.232;8.616;2023-09-30T06:53:02;12.37;;;4.83;;
72087;SDS011;59961;50.232;8.616;2023-09-30T06:55:28;13.27;;;5.37;;
72087;SDS011;59961;50.232;8.616;2023-09-30T06:57:55;13.25;;;5.10;;
72087;SDS011;59961;50.232;8.616;2023-09-30T07:00:21;15.80;;;5.38;;
72087;SDS011;59961;50.232;8.616;2023-09-30T07:02:46;11.47;;;5.10;;
72087;SDS011;59961;50.232;8.616;2023-09-30T07:05:11;14.83;;;4.77;;
72087;SDS011;59961;50.232;8.616;2023-09-30T07:07:37;8.47;;;4.53;;
72087;SDS011;59961;50.232;8.616;2023-09-30T07:10:03;13.10;;;4.93;;
72087;SDS011;59961;50.232;8.616;2023-09-30T07:12:29;12.98;;;4.72;;
72087;SDS011;59961;50.232;8.616;2023-09-30T07:14:55;11.63;;;5.03;;
72087;SDS011;59961;50.232;8.616;2023-09-30T07:17:20;13.05;;;5.05;;
72087;SDS011;59961;50.232;8.616;2023-09-30T07:19:46;11.93;;;4.53;;
72087;SDS011;59961;50.232;8.616;2023-09-30T07:22:11;10.18;;;3.90;;
72087;SDS011;59961;50.232;8.616;2023-09-30T07:24:36;10.07;;;4.53;;
72087;SDS011;59961;50.232;8.616;2023-09-30T07:27:02;9.87;;;4.80;;
72087;SDS011;59961;50.232;8.616;2023-09-30T07:29:28;12.60;;;4.50;;
72087;SDS011;59961;50.232;8.616;2023-09-30T07:31:54;12.90;;;4.17;;
72087;SDS011;59961;50.232;8.616;2023-09-30T07:34:19;10.77;;;3.85;;
72087;SDS011;59961;50.232;8.616;2023-09-30T07:36:44;10.07;;;3.90;;
72087;SDS011;59961;50.232;8.616;2023-09-30T07:39:09;10.10;;;3.83;;
72087;SDS011;59961;50.232;8.616;2023-09-30T07:41:35;11.10;;;3.93;;
72087;SDS011;59961;50.232;8.616;2023-09-30T07:44:01;6.03;;;2.60;;
72087;SDS011;59961;50.232;8.616;2023-09-30T07:46:28;7.35;;;2.95;;
72087;SDS011;59961;50.232;8.616;2023-09-30T07:48:53;7.87;;;2.43;;
72087;SDS011;59961;50.232;8.616;2023-09-30T07:51:19;9.73;;;3.15;;
72087;SDS011;59961;50.232;8.616;2023-09-30T07:53:44;8.80;;;2.40;;
72087;SDS011;59961;50.232;8.616;2023-09-30T07:56:10;9.33;;;2.40;;
72087;SDS011;59961;50.232;8.616;2023-09-30T07:58:35;9.93;;;2.00;;
72087;SDS011;59961;50.232;8.616;2023-09-30T08:01:00;8.35;;;2.40;;
72087;SDS011;59961;50.232;8.616;2023-09-30T08:03:27;7.43;;;2.78;;
72087;SDS011;59961;50.232;8.616;2023-09-30T08:05:52;8.70;;;2.27;;
72087;SDS011;59961;50.232;8.616;2023-09-30T08:08:19;8.43;;;2.83;;
72087;SDS011;59961;50.232;8.616;2023-09-30T08:10:45;8.40;;;2.88;;
72087;SDS011;59961;50.232;8.616;2023-09-30T08:13:10;6.43;;;2.23;;
72087;SDS011;59961;50.232;8.616;2023-09-30T08:15:35;6.80;;;2.00;;
72087;SDS011;59961;50.232;8.616;2023-09-30T08:18:00;8.37;;;2.80;;
72087;SDS011;59961;50.232;8.616;2023-09-30T08:20:28;8.40;;;2.30;;
72087;SDS011;59961;50.232;8.616;2023-09-30T08:22:53;8.20;;;2.43;;
72087;SDS011;59961;50.232;8.616;2023-09-30T08:25:18;7.72;;;2.42;;
72087;SDS011;59961;50.232;8.616;2023-09-30T08:27:43;8.80;;;2.90;;
72087;SDS011;59961;50.232;8.616;2023-09-30T08:30:10;7.13;;;2.92;;
72087;SDS011;59961;50.232;8.616;2023-09-30T08:32:35;10.70;;;2.70;;
72087;SDS011;59961;50.232;8.616;2023-09-30T08:35:04;8.03;;;2.67;;
72087;SDS011;59961;50.232;8.616;2023-09-30T08:37:29;7.32;;;2.53;;
72087;SDS011;59961;50.232;8.616;2023-09-30T08:39:56;8.43;;;3.15;;
72087;SDS011;59961;50.232;8.616;2023-09-30T08:42:21;5.50;;;2.70;;
72087;SDS011;59961;50.232;8.616;2023-09-30T08:44:47;8.45;;;3.05;;
72087;SDS011;59961;50.232;8.616;2023-09-30T08:47:13;8.93;;;2.73;;
72087;SDS011;59961;50.232;8.616;2023-09-30T08:49:39;7.43;;;2.92;;
72087;SDS011;59961;50.232;8.616;2023-09-30T08:52:05;6.60;;;2.40;;
72087;SDS011;59961;50.232;8.616;2023-09-30T08:54:32;8.48;;;2.38;;
72087;SDS011;59961;50.232;8.616;2023-09-30T08:56:57;8.23;;;2.37;;
72087;SDS011;59961;50.232;8.616;2023-09-30T08:59:24;9.20;;;2.75;;
72087;SDS011;59961;50.232;8.616;2023-09-30T09:01:50;9.53;;;2.57;;
72087;SDS011;59961;50.232;8.616;2023-09-30T09:04:16;9.05;;;2.70;;
72087;SDS011;59961;50.232;8.616;2023-09-30T09:06:41;8.47;;;2.97;;
72087;SDS011;59961;50.232;8.616;2023-09-30T09:09:16;10.65;;;3.10;;
72087;SDS011;59961;50.232;8.616;2023-09-30T09:11:42;10.80;;;2.33;;
72087;SDS011;59961;50.232;8.616;2023-09-30T09:14:08;9.52;;;2.65;;
72087;SDS011;59961;50.232;8.616;2023-09-30T09:16:33;6.33;;;2.07;;
72087;SDS011;59961;50.232;8.616;2023-09-30T09:18:58;13.53;;;2.80;;
72087;SDS011;59961;50.232;8.616;2023-09-30T09:21:24;9.00;;;2.87;;
72087;SDS011;59961;50.232;8.616;2023-09-30T09:23:51;8.27;;;2.95;;
72087;SDS011;59961;50.232;8.616;2023-09-30T09:28:49;13.53;;;2.90;;
72087;SDS011;59961;50.232;8.616;2023-09-30T09:31:21;6.63;;;2.30;;
72087;SDS011;59961;50.232;8.616;2023-09-30T09:33:47;7.50;;;2.60;;
72087;SDS011;59961;50.232;8.616;2023-09-30T09:36:12;9.20;;;2.77;;
72087;SDS011;59961;50.232;8.616;2023-09-30T09:38:43;7.60;;;3.05;;
72087;SDS011;59961;50.232;8.616;2023-09-30T09:41:09;7.53;;;2.80;;
72087;SDS011;59961;50.232;8.616;2023-09-30T09:43:35;7.80;;;3.10;;
72087;SDS011;59961;50.232;8.616;2023-09-30T09:46:01;7.70;;;3.13;;
72087;SDS011;59961;50.232;8.616;2023-09-30T09:48:28;7.70;;;3.20;;
72087;SDS011;59961;50.232;8.616;2023-09-30T09:50:53;6.75;;;2.95;;
72087;SDS011;59961;50.232;8.616;2023-09-30T09:53:19;8.10;;;2.87;;
72087;SDS011;59961;50.232;8.616;2023-09-30T09:55:46;9.07;;;3.40;;
72087;SDS011;59961;50.232;8.616;2023-09-30T09:58:12;7.95;;;2.97;;
72087;SDS011;59961;50.232;8.616;2023-09-30T10:00:37;10.70;;;3.17;;
72087;SDS011;59961;50.232;8.616;2023-09-30T10:03:03;8.43;;;3.20;;
72087;SDS011;59961;50.232;8.616;2023-09-30T10:05:28;9.67;;;3.47;;
72087;SDS011;59961;50.232;8.616;2023-09-30T10:07:54;8.27;;;3.50;;
72087;SDS011;59961;50.232;8.616;2023-09-30T10:10:21;9.27;;;3.43;;
72087;SDS011;59961;50.232;8.616;2023-09-30T10:12:47;7.70;;;2.80;;
72087;SDS011;59961;50.232;8.616;2023-09-30T10:18:06;8.25;;;2.95;;
72087;SDS011;59961;50.232;8.616;2023-09-30T10:20:32;6.35;;;3.25;;
72087;SDS011;59961;50.232;8.616;2023-09-30T10:25:42;9.65;;;3.38;;
72087;SDS011;59961;50.232;8.616;2023-09-30T10:31:14;9.43;;;3.20;;
72087;SDS011;59961;50.232;8.616;2023-09-30T10:36:36;7.07;;;2.70;;
72087;SDS011;59961;50.232;8.616;2023-09-30T10:39:03;8.27;;;3.30;;
72087;SDS011;59961;50.232;8.616;2023-09-30T10:49:40;8.63;;;2.60;;
72087;SDS011;59961;50.232;8.616;2023-09-30T10:52:05;8.23;;;3.30;;
72087;SDS011;59961;50.232;8.616;2023-09-30T10:54:31;6.93;;;3.00;;
72087;SDS011;59961;50.232;8.616;2023-09-30T10:56:56;7.85;;;2.88;;
72087;SDS011;59961;50.232;8.616;2023-09-30T10:59:27;8.63;;;3.20;;
72087;SDS011;59961;50.232;8.616;2023-09-30T11:01:55;11.67;;;3.73;;
72087;SDS011;59961;50.232;8.616;2023-09-30T11:04:21;5.95;;;2.75;;
72087;SDS011;59961;50.232;8.616;2023-09-30T11:06:46;6.83;;;3.10;;
72087;SDS011;59961;50.232;8.616;2023-09-30T11:09:15;9.07;;;3.77;;
72087;SDS011;59961;50.232;8.616;2023-09-30T11:11:43;6.97;;;2.85;;
72087;SDS011;59961;50.232;8.616;2023-09-30T11:14:18;7.80;;;2.95;;
72087;SDS011;59961;50.232;8.616;2023-09-30T11:16:43;12.23;;;3.03;;
72087;SDS011;59961;50.232;8.616;2023-09-30T11:19:09;6.97;;;2.22;;
72087;SDS011;59961;50.232;8.616;2023-09-30T11:21:34;7.77;;;3.50;;
72087;SDS011;59961;50.232;8.616;2023-09-30T11:24:00;8.05;;;2.53;;
72087;SDS011;59961;50.232;8.616;2023-09-30T11:26:29;6.03;;;2.60;;
72087;SDS011;59961;50.232;8.616;2023-09-30T11:29:03;8.70;;;2.58;;
72087;SDS011;59961;50.232;8.616;2023-09-30T11:31:30;8.10;;;2.70;;
72087;SDS011;59961;50.232;8.616;2023-09-30T11:33:58;8.27;;;2.60;;
72087;SDS011;59961;50.232;8.616;2023-09-30T11:36:28;8.55;;;3.03;;
72087;SDS011;59961;50.232;8.616;2023-09-30T11:38:53;7.93;;;2.90;;
72087;SDS011;59961;50.232;8.616;2023-09-30T11:41:19;7.13;;;2.47;;
72087;SDS011;59961;50.232;8.616;2023-09-30T11:44:01;9.53;;;3.13;;
72087;SDS011;59961;50.232;8.616;2023-09-30T11:46:26;8.00;;;2.72;;
72087;SDS011;59961;50.232;8.616;2023-09-30T11:49:02;7.88;;;2.88;;
72087;SDS011;59961;50.232;8.616;2023-09-30T11:51:28;5.93;;;2.35;;
72087;SDS011;59961;50.232;8.616;2023-09-30T11:53:54;6.10;;;2.80;;
72087;SDS011;59961;50.232;8.616;2023-09-30T11:56:21;5.73;;;2.77;;
72087;SDS011;59961;50.232;8.616;2023-09-30T11:58:52;7.13;;;2.70;;
72087;SDS011;59961;50.232;8.616;2023-09-30T12:01:18;7.23;;;3.00;;
72087;SDS011;59961;50.232;8.616;2023-09-30T12:03:43;6.97;;;3.10;;
72087;SDS011;59961;50.232;8.616;2023-09-30T12:06:08;8.70;;;3.35;;
72087;SDS011;59961;50.232;8.616;2023-09-30T12:08:38;6.00;;;2.83;;
72087;SDS011;59961;50.232;8.616;2023-09-30T12:11:03;9.03;;;3.10;;
72087;SDS011;59961;50.232;8.616;2023-09-30T12:13:29;6.20;;;2.90;;
72087;SDS011;59961;50.232;8.616;2023-09-30T12:15:54;12.07;;;2.60;;
72087;SDS011;59961;50.232;8.616;2023-09-30T12:18:19;7.20;;;2.17;;
72087;SDS011;59961;50.232;8.616;2023-09-30T12:20:48;6.45;;;2.45;;
72087;SDS011;59961;50.232;8.616;2023-09-30T12:23:14;5.97;;;2.57;;
72087;SDS011;59961;50.232;8.616;2023-09-30T12:25:39;5.97;;;2.40;;
72087;SDS011;59961;50.232;8.616;2023-09-30T12:28:04;5.50;;;2.45;;
72087;SDS011;59961;50.232;8.616;2023-09-30T12:30:30;3.90;;;2.03;;
72087;SDS011;59961;50.232;8.616;2023-09-30T12:32:57;5.00;;;2.10;;
72087;SDS011;59961;50.232;8.616;2023-09-30T12:35:22;7.60;;;3.07;;
72087;SDS011;59961;50.232;8.616;2023-09-30T12:37:47;6.23;;;2.40;;
72087;SDS011;59961;50.232;8.616;2023-09-30T12:40:12;6.93;;;2.40;;
72087;SDS011;59961;50.232;8.616;2023-09-30T12:42:41;8.10;;;2.53;;
72087;SDS011;59961;50.232;8.616;2023-09-30T12:45:07;5.78;;;2.70;;
72087;SDS011;59961;50.232;8.616;2023-09-30T12:47:33;6.40;;;2.27;;
72087;SDS011;59961;50.232;8.616;2023-09-30T12:49:58;5.37;;;2.47;;
72087;SDS011;59961;50.232;8.616;2023-09-30T12:52:23;6.65;;;2.65;;
72087;SDS011;59961;50.232;8.616;2023-09-30T12:54:49;6.32;;;2.38;;
72087;SDS011;59961;50.232;8.616;2023-09-30T12:57:14;4.90;;;2.30;;
72087;SDS011;59961;50.232;8.616;2023-09-30T12:59:42;4.60;;;2.00;;
72087;SDS011;59961;50.232;8.616;2023-09-30T13:02:08;6.20;;;2.23;;
72087;SDS011;59961;50.232;8.616;2023-09-30T13:04:34;5.70;;;2.47;;
72087;SDS011;59961;50.232;8.616;2023-09-30T13:06:59;5.03;;;2.27;;
72087;SDS011;59961;50.232;8.616;2023-09-30T13:09:24;6.28;;;2.25;;
72087;SDS011;59961;50.232;8.616;2023-09-30T13:11:50;5.50;;;2.50;;
72087;SDS011;59961;50.232;8.616;2023-09-30T13:14:16;7.63;;;2.40;;
72087;SDS011;59961;50.232;8.616;2023-09-30T13:16:43;6.20;;;2.35;;
72087;SDS011;59961;50.232;8.616;2023-09-30T13:19:08;3.20;;;2.00;;
72087;SDS011;59961;50.232;8.616;2023-09-30T13:21:33;7.20;;;2.45;;
72087;SDS011;59961;50.232;8.616;2023-09-30T13:23:59;4.97;;;1.97;;
72087;SDS011;59961;50.232;8.616;2023-09-30T13:26:24;4.13;;;2.10;;
72087;SDS011;59961;50.232;8.616;2023-09-30T13:28:51;5.07;;;2.00;;
72087;SDS011;59961;50.232;8.616;2023-09-30T13:31:16;5.25;;;1.50;;
72087;SDS011;59961;50.232;8.616;2023-09-30T13:33:41;4.23;;;1.80;;
72087;SDS011;59961;50.232;8.616;2023-09-30T13:36:07;7.37;;;2.50;;
72087;SDS011;59961;50.232;8.616;2023-09-30T13:38:32;4.03;;;1.57;;
72087;SDS011;59961;50.232;8.616;2023-09-30T13:40:58;5.15;;;2.00;;
72087;SDS011;59961;50.232;8.616;2023-09-30T13:43:24;5.60;;;2.10;;
72087;SDS011;59961;50.232;8.616;2023-09-30T13:45:49;4.07;;;1.93;;
72087;SDS011;59961;50.232;8.616;2023-09-30T13:48:16;3.33;;;1.70;;
72087;SDS011;59961;50.232;8.616;2023-09-30T13:50:41;6.05;;;2.13;;
72087;SDS011;59961;50.232;8.616;2023-09-30T13:53:07;4.13;;;1.57;;
72087;SDS011;59961;50.232;8.616;2023-09-30T13:55:32;4.67;;;1.80;;
72087;SDS011;59961;50.232;8.616;2023-09-30T13:57:57;3.80;;;1.43;;
72087;SDS011;59961;50.232;8.616;2023-09-30T14:00:22;5.60;;;1.60;;
72087;SDS011;59961;50.232;8.616;2023-09-30T14:02:47;5.73;;;1.50;;
72087;SDS011;59961;50.232;8.616;2023-09-30T14:05:13;3.37;;;1.47;;
72087;SDS011;59961;50.232;8.616;2023-09-30T14:07:38;2.70;;;1.25;;
72087;SDS011;59961;50.232;8.616;2023-09-30T14:10:05;4.53;;;1.40;;
72087;SDS011;59961;50.232;8.616;2023-09-30T14:12:30;4.18;;;1.45;;
72087;SDS011;59961;50.232;8.616;2023-09-30T14:14:56;3.33;;;1.52;;
72087;SDS011;59961;50.232;8.616;2023-09-30T14:17:21;4.23;;;1.40;;
72087;SDS011;59961;50.232;8.616;2023-09-30T14:19:46;4.33;;;1.90;;
72087;SDS011;59961;50.232;8.616;2023-09-30T14:22:12;3.50;;;1.80;;
72087;SDS011;59961;50.232;8.616;2023-09-30T14:24:37;4.10;;;1.73;;
72087;SDS011;59961;50.232;8.616;2023-09-30T14:27:02;3.23;;;1.43;;
72087;SDS011;59961;50.232;8.616;2023-09-30T14:29:32;2.97;;;1.37;;
72087;SDS011;59961;50.232;8.616;2023-09-30T14:31:57;5.35;;;1.80;;
72087;SDS011;59961;50.232;8.616;2023-09-30T14:34:23;4.20;;;1.60;;
72087;SDS011;59961;50.232;8.616;2023-09-30T14:36:48;4.83;;;1.73;;
72087;SDS011;59961;50.232;8.616;2023-09-30T14:39:13;5.70;;;2.23;;
72087;SDS011;59961;50.232;8.616;2023-09-30T14:41:40;3.22;;;1.60;;
72087;SDS011;59961;50.232;8.616;2023-09-30T14:44:06;4.90;;;1.70;;
72087;SDS011;59961;50.232;8.616;2023-09-30T14:46:33;5.57;;;1.80;;
72087;SDS011;59961;50.232;8.616;2023-09-30T14:48:58;3.42;;;1.38;;
72087;SDS011;59961;50.232;8.616;2023-09-30T14:51:24;4.03;;;1.50;;
72087;SDS011;59961;50.232;8.616;2023-09-30T14:53:49;5.33;;;1.70;;
72087;SDS011;59961;50.232;8.616;2023-09-30T14:56:17;4.35;;;1.55;;
72087;SDS011;59961;50.232;8.616;2023-09-30T14:58:43;4.20;;;1.70;;